createdAt,value
2019-03-08T00:01:58.459Z,11.34
2019-03-08T00:04:28.251Z,11.33
2019-03-08T00:06:58.895Z,11.30
2019-03-08T00:09:28.692Z,11.27
2019-03-08T00:11:58.477Z,11.18
2019-03-08T00:14:31.316Z,11.15
2019-03-08T00:17:01.121Z,11.15
2019-03-08T00:19:30.905Z,11.15
2019-03-08T00:22:00.724Z,11.16
2019-03-08T00:24:30.474Z,11.14
2019-03-08T00:27:00.456Z,11.08
2019-03-08T00:29:30.292Z,10.92
2019-03-08T00:32:00.469Z,10.87
2019-03-08T00:34:30.125Z,10.80
2019-03-08T00:36:59.943Z,10.86
2019-03-08T00:39:29.560Z,10.96
2019-03-08T00:42:00.051Z,10.86
2019-03-08T00:44:29.858Z,10.86
2019-03-08T00:46:59.614Z,10.75
2019-03-08T00:49:29.525Z,10.72
2019-03-08T00:51:59.284Z,10.69
2019-03-08T00:54:29.236Z,10.62
2019-03-08T00:56:59.013Z,10.51
2019-03-08T00:59:28.825Z,10.55
2019-03-08T01:01:58.597Z,10.69
2019-03-08T01:04:28.415Z,10.67
2019-03-08T01:07:00.608Z,10.59
2019-03-08T01:09:30.418Z,10.56
2019-03-08T01:12:00.218Z,10.48
2019-03-08T01:14:30.023Z,10.51
2019-03-08T01:16:59.771Z,10.53
2019-03-08T01:19:32.243Z,10.50
2019-03-08T01:22:02.068Z,10.49
2019-03-08T01:24:31.862Z,10.43
2019-03-08T01:27:02.424Z,10.34
2019-03-08T01:29:32.211Z,10.26
2019-03-08T01:32:05.547Z,10.18
2019-03-08T01:34:36.361Z,10.12
2019-03-08T01:37:06.183Z,10.05
2019-03-08T01:39:36.004Z,9.98
2019-03-08T01:42:06.746Z,9.89
2019-03-08T01:44:36.536Z,9.68
2019-03-08T01:47:06.357Z,9.58
2019-03-08T01:49:36.138Z,9.64
2019-03-08T01:52:05.925Z,9.65
2019-03-08T01:54:35.690Z,9.60
2019-03-08T01:57:06.880Z,9.61
2019-03-08T01:59:38.458Z,9.61
2019-03-08T02:02:08.336Z,9.53
2019-03-08T02:04:38.884Z,9.39
2019-03-08T02:07:09.776Z,9.32
2019-03-08T02:09:40.343Z,9.29
2019-03-08T02:12:10.379Z,9.34
2019-03-08T02:14:40.157Z,9.41
2019-03-08T02:17:09.917Z,9.64
2019-03-08T02:19:40.160Z,9.61
2019-03-08T02:22:09.987Z,9.48
2019-03-08T02:24:41.085Z,9.37
2019-03-08T02:27:13.195Z,9.25
2019-03-08T02:29:44.193Z,9.21
2019-03-08T02:32:13.952Z,9.15
2019-03-08T02:34:44.713Z,9.11
2019-03-08T02:37:14.696Z,9.34
2019-03-08T02:39:44.352Z,9.64
2019-03-08T02:42:14.156Z,9.42
2019-03-08T02:44:43.896Z,9.27
2019-03-08T02:47:13.627Z,9.15
2019-03-08T02:49:43.495Z,9.07
2019-03-08T02:52:13.243Z,8.98
2019-03-08T02:54:43.017Z,8.96
2019-03-08T02:57:12.824Z,8.87
2019-03-08T02:59:44.701Z,8.62
2019-03-08T03:02:14.567Z,8.52
2019-03-08T03:04:45.606Z,8.49
2019-03-08T03:07:15.396Z,8.50
2019-03-08T03:09:45.198Z,8.49
2019-03-08T03:12:15.096Z,8.47
2019-03-08T03:14:44.850Z,8.43
2019-03-08T03:17:14.951Z,8.46
2019-03-08T03:19:44.812Z,8.32
2019-03-08T03:22:14.616Z,8.26
2019-03-08T03:24:45.434Z,8.22
2019-03-08T03:27:17.572Z,8.05
2019-03-08T03:29:47.432Z,7.99
2019-03-08T03:32:17.270Z,7.93
2019-03-08T03:34:49.054Z,7.86
2019-03-08T03:37:18.845Z,7.86
2019-03-08T03:39:49.566Z,7.91
2019-03-08T03:42:19.373Z,7.96
2019-03-08T03:44:49.142Z,7.99
2019-03-08T03:47:19.834Z,7.96
2019-03-08T03:49:52.031Z,7.90
2019-03-08T03:52:21.685Z,7.82
2019-03-08T03:54:54.116Z,8.14
2019-03-08T03:57:23.874Z,8.22
2019-03-08T03:59:54.575Z,7.91
2019-03-08T04:02:24.586Z,7.90
2019-03-08T04:04:54.511Z,8.15
2019-03-08T04:07:24.284Z,8.35
2019-03-08T04:09:54.146Z,8.61
2019-03-08T04:12:23.986Z,8.65
2019-03-08T04:14:54.687Z,8.63
2019-03-08T04:17:24.528Z,8.40
2019-03-08T04:19:54.321Z,8.33
2019-03-08T04:22:24.917Z,8.22
2019-03-08T04:24:54.844Z,8.09
2019-03-08T04:27:25.110Z,7.93
2019-03-08T04:29:56.639Z,7.81
2019-03-08T04:32:26.631Z,7.71
2019-03-08T04:34:56.619Z,7.63
2019-03-08T04:37:26.436Z,7.64
2019-03-08T04:39:56.254Z,7.63
2019-03-08T04:42:26.026Z,7.73
2019-03-08T04:44:55.984Z,7.78
2019-03-08T04:47:25.765Z,7.74
2019-03-08T04:49:56.345Z,7.74
2019-03-08T04:52:26.147Z,7.58
2019-03-08T04:54:56.128Z,7.67
2019-03-08T04:57:26.108Z,7.61
2019-03-08T04:59:55.857Z,7.52
2019-03-08T05:02:25.810Z,7.74
2019-03-08T05:04:55.605Z,7.91
2019-03-08T05:07:25.390Z,7.88
2019-03-08T05:09:55.147Z,7.82
2019-03-08T05:12:25.830Z,7.81
2019-03-08T05:14:57.517Z,7.76
2019-03-08T05:17:35.455Z,7.97
2019-03-08T05:20:04.366Z,8.05
2019-03-08T05:22:34.258Z,8.04
2019-03-08T05:25:06.766Z,7.98
2019-03-08T05:27:36.871Z,7.92
2019-03-08T05:30:12.412Z,7.89
2019-03-08T05:32:42.205Z,7.88
2019-03-08T05:35:11.984Z,7.89
2019-03-08T05:37:41.798Z,7.88
2019-03-08T05:40:13.359Z,7.94
2019-03-08T05:42:43.116Z,7.95
2019-03-08T05:45:14.043Z,7.99
2019-03-08T05:47:43.874Z,8.10
2019-03-08T05:50:13.758Z,8.32
2019-03-08T05:52:43.854Z,8.20
2019-03-08T05:55:13.814Z,8.20
2019-03-08T05:57:45.212Z,8.24
2019-03-08T06:00:20.370Z,9.19
2019-03-08T06:02:50.196Z,9.81
2019-03-08T06:05:20.271Z,9.89
2019-03-08T06:07:50.202Z,9.90
2019-03-08T06:10:27.779Z,10.41
2019-03-08T06:12:57.972Z,10.58
2019-03-08T06:15:29.214Z,10.68
2019-03-08T06:17:59.416Z,10.65
2019-03-08T06:20:29.245Z,10.48
2019-03-08T06:22:59.025Z,10.72
2019-03-08T06:25:28.846Z,10.86
2019-03-08T06:27:58.644Z,10.77
2019-03-08T06:30:28.401Z,10.39
2019-03-08T06:32:58.216Z,10.19
2019-03-08T06:35:29.921Z,10.20
2019-03-08T06:38:00.381Z,10.18
2019-03-08T06:40:30.022Z,10.08
2019-03-08T06:43:00.659Z,10.05
2019-03-08T06:45:30.861Z,9.97
2019-03-08T06:48:00.675Z,9.88
2019-03-08T06:50:30.474Z,9.85
2019-03-08T06:53:00.797Z,9.83
2019-03-08T06:55:30.853Z,10.14
2019-03-08T06:58:02.241Z,10.67
2019-03-08T07:00:39.572Z,10.57
2019-03-08T07:03:10.071Z,10.45
2019-03-08T07:05:39.852Z,10.29
2019-03-08T07:08:10.025Z,10.12
2019-03-08T07:10:40.330Z,10.08
2019-03-08T07:13:10.156Z,10.02
2019-03-08T07:15:39.997Z,9.98
2019-03-08T07:18:12.923Z,10.12
2019-03-08T07:20:49.027Z,10.09
2019-03-08T07:23:27.619Z,10.26
2019-03-08T07:26:00.266Z,10.40
2019-03-08T07:28:44.105Z,10.56
2019-03-08T07:31:21.181Z,10.70
2019-03-08T07:33:59.122Z,10.75
2019-03-08T07:36:32.344Z,10.93
2019-03-08T07:39:13.095Z,10.88
2019-03-08T07:41:44.426Z,11.00
2019-03-08T07:44:25.282Z,11.11
2019-03-08T07:47:08.945Z,11.20
2019-03-08T07:49:41.174Z,11.35
2019-03-08T07:52:42.429Z,11.49
2019-03-08T07:55:22.883Z,11.64
2019-03-08T07:57:58.030Z,11.67
2019-03-08T08:00:33.795Z,11.51
2019-03-08T08:03:07.505Z,11.78
2019-03-08T08:05:57.302Z,12.09
2019-03-08T08:08:30.840Z,12.72
2019-03-08T08:11:12.334Z,12.72
2019-03-08T08:13:59.685Z,13.08
2019-03-08T08:16:39.881Z,13.35
2019-03-08T08:19:20.100Z,13.54
2019-03-08T08:21:51.620Z,13.87
2019-03-08T08:24:34.845Z,14.23
2019-03-08T08:27:07.133Z,14.48
2019-03-08T08:29:58.084Z,14.41
2019-03-08T08:32:46.732Z,14.39
2019-03-08T08:35:23.900Z,14.50
2019-03-08T08:38:04.250Z,14.55
2019-03-08T08:40:35.626Z,14.25
2019-03-08T08:43:15.965Z,14.06
2019-03-08T08:45:50.481Z,14.46
2019-03-08T08:48:31.643Z,14.47
2019-03-08T08:51:08.992Z,14.27
2019-03-08T08:53:40.927Z,14.13
2019-03-08T08:56:12.669Z,14.06
2019-03-08T08:58:56.891Z,13.71
2019-03-08T09:01:29.079Z,13.58
2019-03-08T09:04:12.456Z,13.59
2019-03-08T09:07:01.682Z,13.55
2019-03-08T09:09:39.625Z,13.83
2019-03-08T09:12:14.900Z,13.83
2019-03-08T09:14:47.109Z,13.51
2019-03-08T09:17:35.818Z,13.50
2019-03-08T09:20:13.024Z,13.31
2019-03-08T09:22:48.532Z,13.47
2019-03-08T09:25:38.014Z,13.48
2019-03-08T09:28:18.188Z,13.45
2019-03-08T09:30:52.369Z,13.49
2019-03-08T09:33:26.387Z,13.54
2019-03-08T09:35:57.747Z,13.39
2019-03-08T09:38:34.796Z,13.37
2019-03-08T09:41:24.462Z,13.45
2019-03-08T09:43:58.654Z,13.27
2019-03-08T09:46:30.485Z,13.15
2019-03-08T09:49:17.910Z,13.14
2019-03-08T09:51:49.266Z,13.12
2019-03-08T09:54:39.480Z,13.03
2019-03-08T09:57:14.345Z,12.88
2019-03-08T09:59:55.572Z,12.83
2019-03-08T10:02:29.930Z,12.85
2019-03-08T10:05:16.365Z,12.92
2019-03-08T10:07:50.774Z,12.94
2019-03-08T10:10:25.037Z,12.68
2019-03-08T10:13:02.155Z,12.64
2019-03-08T10:15:37.244Z,12.56
2019-03-08T10:18:18.144Z,12.48
2019-03-08T10:21:02.159Z,12.57
2019-03-08T10:23:49.552Z,12.67
2019-03-08T10:26:33.095Z,12.87
2019-03-08T10:29:07.319Z,12.97
2019-03-08T10:31:38.678Z,13.07
2019-03-08T10:34:22.597Z,13.06
2019-03-08T10:36:59.861Z,13.14
2019-03-08T10:39:47.082Z,13.18
2019-03-08T10:42:35.433Z,13.66
2019-03-08T10:45:27.059Z,13.93
2019-03-08T10:48:02.176Z,13.95
2019-03-08T10:50:39.689Z,14.22
2019-03-08T10:53:16.897Z,14.16
2019-03-08T10:55:53.925Z,14.33
2019-03-08T10:58:26.324Z,14.20
2019-03-08T11:01:13.257Z,14.29
2019-03-08T11:03:47.865Z,14.46
2019-03-08T11:06:34.936Z,14.43
2019-03-08T11:09:08.404Z,14.46
2019-03-08T11:11:39.764Z,14.22
2019-03-08T11:14:11.579Z,14.44
2019-03-08T11:16:43.696Z,14.29
2019-03-08T11:19:31.065Z,14.27
2019-03-08T11:22:02.493Z,14.51
2019-03-08T11:24:40.586Z,14.64
2019-03-08T11:27:13.247Z,14.43
2019-03-08T11:30:00.587Z,14.43
2019-03-08T11:32:31.991Z,14.45
2019-03-08T11:35:19.893Z,14.76
2019-03-08T11:37:57.294Z,14.80
2019-03-08T11:40:40.747Z,14.66
2019-03-08T11:43:29.440Z,14.79
2019-03-08T11:46:17.844Z,14.62
2019-03-08T11:49:06.262Z,14.97
2019-03-08T11:51:43.476Z,15.21
2019-03-08T11:54:18.038Z,14.91
2019-03-08T11:56:56.394Z,14.36
2019-03-08T11:59:44.141Z,14.66
2019-03-08T12:02:37.578Z,14.81
2019-03-08T12:05:12.556Z,14.76
2019-03-08T12:07:43.836Z,14.57
2019-03-08T12:10:15.166Z,14.42
2019-03-08T12:12:46.689Z,14.50
2019-03-08T12:15:33.536Z,14.68
2019-03-08T12:18:05.176Z,14.82
2019-03-08T12:20:36.605Z,14.96
2019-03-08T12:23:13.964Z,15.05
2019-03-08T12:26:01.851Z,15.08
2019-03-08T12:28:38.969Z,15.27
2019-03-08T12:31:27.069Z,15.26
2019-03-08T12:34:17.283Z,15.37
2019-03-08T12:36:52.178Z,15.46
2019-03-08T12:39:40.425Z,15.44
2019-03-08T12:42:14.625Z,15.33
2019-03-08T12:44:49.344Z,15.38
2019-03-08T12:47:30.314Z,15.06
2019-03-08T12:50:19.113Z,14.92
2019-03-08T12:53:07.004Z,14.97
2019-03-08T12:55:54.648Z,15.04
2019-03-08T12:58:34.917Z,15.02
2019-03-08T13:01:06.593Z,14.97
2019-03-08T13:03:42.380Z,14.66
2019-03-08T13:06:15.573Z,15.07
2019-03-08T13:08:47.934Z,15.31
2019-03-08T13:11:17.711Z,15.31
2019-03-08T13:13:49.098Z,14.96
2019-03-08T13:16:19.021Z,14.81
2019-03-08T13:18:48.842Z,14.69
2019-03-08T13:21:19.558Z,14.69
2019-03-08T13:23:49.901Z,14.57
2019-03-08T13:26:21.884Z,14.60
2019-03-08T13:28:54.019Z,14.62
2019-03-08T13:31:23.864Z,14.71
2019-03-08T13:33:53.640Z,14.62
2019-03-08T13:36:23.503Z,14.66
2019-03-08T13:38:53.300Z,14.59
2019-03-08T13:41:23.264Z,14.67
2019-03-08T13:43:53.193Z,14.68
2019-03-08T13:46:23.013Z,14.76
2019-03-08T13:48:54.856Z,14.68
2019-03-08T13:51:24.815Z,14.50
2019-03-08T13:53:55.157Z,14.25
2019-03-08T13:56:25.183Z,14.10
2019-03-08T13:58:56.948Z,13.92
2019-03-08T14:01:26.827Z,13.94
2019-03-08T14:03:56.621Z,13.83
2019-03-08T14:06:26.416Z,13.82
2019-03-08T14:08:56.613Z,13.79
2019-03-08T14:11:27.314Z,14.00
2019-03-08T14:13:56.996Z,14.07
2019-03-08T14:16:27.025Z,14.06
2019-03-08T14:18:56.822Z,13.86
2019-03-08T14:21:26.651Z,13.84
2019-03-08T14:23:56.433Z,13.68
2019-03-08T14:26:26.219Z,13.59
2019-03-08T14:28:56.036Z,13.50
2019-03-08T14:31:30.275Z,13.31
2019-03-08T14:34:00.044Z,13.24
2019-03-08T14:36:29.912Z,13.29
2019-03-08T14:38:59.697Z,13.38
2019-03-08T14:41:33.995Z,13.42
2019-03-08T14:44:08.467Z,13.61
2019-03-08T14:46:48.751Z,13.38
2019-03-08T14:49:22.907Z,13.50
2019-03-08T14:51:53.334Z,13.44
2019-03-08T14:54:24.581Z,13.51
2019-03-08T14:56:54.279Z,13.53
2019-03-08T14:59:24.113Z,13.51
2019-03-08T15:01:53.804Z,13.43
2019-03-08T15:04:23.777Z,13.38
2019-03-08T15:06:54.654Z,13.04
2019-03-08T15:09:24.295Z,13.00
2019-03-08T15:11:56.059Z,12.92
2019-03-08T15:14:30.245Z,12.93
2019-03-08T15:17:08.915Z,12.89
2019-03-08T15:19:36.199Z,12.92
2019-03-08T15:22:04.045Z,12.90
2019-03-08T15:24:38.395Z,12.86
2019-03-08T15:27:05.563Z,12.81
2019-03-08T15:29:38.235Z,12.79
2019-03-08T15:32:08.224Z,12.81
2019-03-08T15:34:38.044Z,12.72
2019-03-08T15:37:08.009Z,12.73
2019-03-08T15:39:37.872Z,12.81
2019-03-08T15:42:07.889Z,12.82
2019-03-08T15:44:39.242Z,12.74
2019-03-08T15:47:13.479Z,12.67
2019-03-08T15:49:41.961Z,12.56
2019-03-08T15:52:12.245Z,12.36
2019-03-08T15:54:42.495Z,12.31
2019-03-08T15:57:12.309Z,12.39
2019-03-08T15:59:42.229Z,12.35
2019-03-08T16:02:12.064Z,12.29
2019-03-08T16:04:41.889Z,12.40
2019-03-08T16:07:11.722Z,12.25
2019-03-08T16:09:41.542Z,12.00
2019-03-08T16:12:11.374Z,12.02
2019-03-08T16:14:41.165Z,12.11
2019-03-08T16:17:10.978Z,12.09
2019-03-08T16:19:40.826Z,11.96
2019-03-08T16:22:10.621Z,11.95
2019-03-08T16:24:40.569Z,11.97
2019-03-08T16:27:10.492Z,11.92
2019-03-08T16:29:40.350Z,11.90
2019-03-08T16:32:18.005Z,11.76
2019-03-08T16:34:48.876Z,11.73
2019-03-08T16:37:32.421Z,11.67
2019-03-08T16:40:03.713Z,11.73
2019-03-08T16:42:35.034Z,11.77
2019-03-08T16:45:09.444Z,11.77
2019-03-08T16:47:56.844Z,11.05
2019-03-08T16:50:31.002Z,11.52
2019-03-08T16:53:02.394Z,11.52
2019-03-08T16:55:49.664Z,11.58
2019-03-08T16:58:27.101Z,11.73
2019-03-08T17:01:10.402Z,12.13
2019-03-08T17:03:58.685Z,11.80
2019-03-08T17:06:49.211Z,11.63
2019-03-08T17:09:29.378Z,11.52
2019-03-08T17:12:01.901Z,11.49
2019-03-08T17:14:34.210Z,11.43
2019-03-08T17:17:18.699Z,11.40
2019-03-08T17:20:05.575Z,11.28
2019-03-08T17:22:36.998Z,11.21
2019-03-08T17:25:08.698Z,11.15
2019-03-08T17:27:53.433Z,11.08
2019-03-08T17:30:39.844Z,11.03
2019-03-08T17:33:26.614Z,10.97
2019-03-08T17:36:07.364Z,10.90
2019-03-08T17:38:41.694Z,10.81
2019-03-08T17:41:22.695Z,10.74
2019-03-08T17:44:06.909Z,10.70
2019-03-08T17:46:40.804Z,10.65
2019-03-08T17:49:15.085Z,10.61
2019-03-08T17:51:49.050Z,10.60
2019-03-08T17:54:21.449Z,10.54
2019-03-08T17:56:55.523Z,10.57
2019-03-08T17:59:27.450Z,11.05
2019-03-08T18:01:58.873Z,11.04
2019-03-08T18:04:32.913Z,10.90
2019-03-08T18:07:12.914Z,10.83
2019-03-08T18:09:56.409Z,10.78
2019-03-08T18:12:31.427Z,10.71
2019-03-08T18:15:02.932Z,10.61
2019-03-08T18:17:40.103Z,10.57
2019-03-08T18:20:14.264Z,10.51
2019-03-08T18:22:52.252Z,10.60
2019-03-08T18:25:24.170Z,10.71
2019-03-08T18:28:01.238Z,10.60
2019-03-08T18:30:47.952Z,10.56
2019-03-08T18:33:21.918Z,10.58
2019-03-08T18:35:53.552Z,10.48
2019-03-08T18:38:40.866Z,10.53
2019-03-08T18:41:12.198Z,10.45
2019-03-08T18:43:43.712Z,10.49
2019-03-08T18:46:17.878Z,10.70
2019-03-08T18:48:52.238Z,10.78
2019-03-08T18:51:35.934Z,10.68
2019-03-08T18:54:16.629Z,10.64
2019-03-08T18:56:57.211Z,10.89
2019-03-08T18:59:28.676Z,10.79
2019-03-08T19:02:00.111Z,10.70
2019-03-08T19:04:40.802Z,10.67
2019-03-08T19:07:18.314Z,10.70
2019-03-08T19:09:49.716Z,10.49
2019-03-08T19:12:33.333Z,10.55
2019-03-08T19:15:21.779Z,10.49
2019-03-08T19:17:55.802Z,10.41
2019-03-08T19:20:33.035Z,10.45
2019-03-08T19:23:10.437Z,10.32
2019-03-08T19:25:44.761Z,10.28
2019-03-08T19:28:25.040Z,10.10
2019-03-08T19:31:02.383Z,10.14
2019-03-08T19:33:49.901Z,10.21
2019-03-08T19:36:21.536Z,9.97
2019-03-08T19:38:53.036Z,9.80
2019-03-08T19:41:24.599Z,9.78
2019-03-08T19:43:56.010Z,9.73
2019-03-08T19:46:39.603Z,9.71
2019-03-08T19:49:27.310Z,9.69
2019-03-08T19:52:01.464Z,9.59
2019-03-08T19:54:32.830Z,9.62
2019-03-08T19:57:07.147Z,9.56
2019-03-08T19:59:41.638Z,9.53
2019-03-08T20:02:29.259Z,9.51
2019-03-08T20:05:06.332Z,9.58
2019-03-08T20:07:49.681Z,9.49
2019-03-08T20:10:24.263Z,9.46
2019-03-08T20:13:04.344Z,9.43
2019-03-08T20:15:35.783Z,9.22
2019-03-08T20:18:20.251Z,9.19
2019-03-08T20:20:51.673Z,9.13
2019-03-08T20:23:26.177Z,8.99
2019-03-08T20:26:14.116Z,8.99
2019-03-08T20:29:01.617Z,8.94
2019-03-08T20:31:49.121Z,8.91
2019-03-08T20:34:20.504Z,9.08
2019-03-08T20:36:57.782Z,9.12
2019-03-08T20:39:29.219Z,9.16
2019-03-08T20:42:03.724Z,9.02
2019-03-08T20:44:35.946Z,9.05
2019-03-08T20:47:07.469Z,9.05
2019-03-08T20:49:37.379Z,8.94
2019-03-08T20:52:08.157Z,8.94
2019-03-08T20:54:38.338Z,9.01
2019-03-08T20:57:08.177Z,8.93
2019-03-08T20:59:39.642Z,8.81
2019-03-08T21:02:09.682Z,8.76
2019-03-08T21:04:39.531Z,8.82
2019-03-08T21:07:09.259Z,8.75
2019-03-08T21:09:39.087Z,8.64
2019-03-08T21:12:08.890Z,8.62
2019-03-08T21:14:38.742Z,8.65
2019-03-08T21:17:08.590Z,8.72
2019-03-08T21:19:38.612Z,8.75
2019-03-08T21:22:08.749Z,8.60
2019-03-08T21:24:38.625Z,8.50
2019-03-08T21:27:08.502Z,8.36
2019-03-08T21:29:38.315Z,8.41
2019-03-08T21:32:08.558Z,8.35
2019-03-08T21:34:38.417Z,8.33
2019-03-08T21:37:08.187Z,8.33
2019-03-08T21:39:38.448Z,8.35
2019-03-08T21:42:08.451Z,8.31
2019-03-08T21:44:38.409Z,8.28
2019-03-08T21:47:08.230Z,8.29
2019-03-08T21:49:39.430Z,8.29
2019-03-08T21:52:10.492Z,8.33
2019-03-08T21:54:40.184Z,8.32
2019-03-08T21:57:10.969Z,8.28
2019-03-08T21:59:41.024Z,8.21
2019-03-08T22:02:10.863Z,8.15
2019-03-08T22:04:42.409Z,8.21
2019-03-08T22:07:12.256Z,8.19
2019-03-08T22:09:59.801Z,8.19
2019-03-08T22:12:29.619Z,8.18
2019-03-08T22:14:59.497Z,8.18
2019-03-08T22:17:29.683Z,8.20
2019-03-08T22:19:59.313Z,8.16
2019-03-08T22:22:29.279Z,8.03
2019-03-08T22:24:59.225Z,7.91
2019-03-08T22:27:28.998Z,7.86
2019-03-08T22:29:59.176Z,7.89
2019-03-08T22:32:28.944Z,7.79
2019-03-08T22:34:58.783Z,7.89
2019-03-08T22:37:28.626Z,7.95
2019-03-08T22:39:59.288Z,8.04
2019-03-08T22:42:29.244Z,8.06
2019-03-08T22:44:59.070Z,8.11
2019-03-08T22:47:28.828Z,8.14
2019-03-08T22:49:58.668Z,8.13
2019-03-08T22:52:28.463Z,7.99
2019-03-08T22:54:58.427Z,7.99
2019-03-08T22:57:28.198Z,8.10
2019-03-08T22:59:57.995Z,8.13
2019-03-08T23:02:27.763Z,8.03
2019-03-08T23:04:57.667Z,8.01
2019-03-08T23:07:27.474Z,8.00
2019-03-08T23:09:57.249Z,8.05
2019-03-08T23:12:27.868Z,7.92
2019-03-08T23:14:57.939Z,7.97
2019-03-08T23:17:30.249Z,7.97
2019-03-08T23:20:00.884Z,7.99
2019-03-08T23:22:30.723Z,8.06
2019-03-08T23:25:00.770Z,8.09
2019-03-08T23:27:32.578Z,8.00
2019-03-08T23:30:04.277Z,7.89
2019-03-08T23:32:35.677Z,7.81
2019-03-08T23:35:07.318Z,7.65
2019-03-08T23:37:37.144Z,7.54
2019-03-08T23:40:08.538Z,7.56
2019-03-08T23:42:38.314Z,7.46
2019-03-08T23:45:09.880Z,7.51
2019-03-08T23:47:39.660Z,7.55
2019-03-08T23:50:09.911Z,7.60
2019-03-08T23:52:40.355Z,7.60
2019-03-08T23:55:11.418Z,7.68
2019-03-08T23:57:41.262Z,7.81
